createdAt,value
2022-09-16T00:01:31.644Z,17.07
2022-09-16T00:03:58.188Z,17.08
2022-09-16T00:06:27.483Z,17.09
2022-09-16T00:08:59.428Z,17.09
2022-09-16T00:11:25.984Z,17.11
2022-09-16T00:13:52.572Z,17.11
2022-09-16T00:16:25.086Z,17.13
2022-09-16T00:18:56.384Z,17.13
2022-09-16T00:21:23.383Z,17.13
2022-09-16T00:23:50.006Z,17.15
2022-09-16T00:26:16.868Z,17.14
2022-09-16T00:28:43.993Z,17.15
2022-09-16T00:31:10.701Z,17.13
2022-09-16T00:33:37.397Z,17.13
2022-09-16T00:36:14.015Z,17.11
2022-09-16T00:38:41.885Z,17.09
2022-09-16T00:41:10.798Z,17.08
2022-09-16T00:44:26.937Z,17.02
2022-09-16T00:46:54.998Z,17.02
2022-09-16T00:49:27.653Z,17.01
2022-09-16T00:51:59.506Z,17.01
2022-09-16T00:54:26.987Z,17.01
2022-09-16T00:56:56.050Z,16.99
2022-09-16T00:59:59.397Z,16.96
2022-09-16T01:02:27.479Z,16.98
2022-09-16T01:04:53.950Z,16.96
2022-09-16T01:07:39.253Z,16.96
2022-09-16T01:10:06.503Z,16.98
2022-09-16T01:12:34.894Z,16.98
2022-09-16T01:15:02.805Z,17.00
2022-09-16T01:17:47.120Z,16.99
2022-09-16T01:20:42.686Z,16.98
2022-09-16T01:23:17.825Z,16.97
2022-09-16T01:26:19.000Z,16.96
2022-09-16T01:28:57.424Z,16.96
2022-09-16T01:31:50.019Z,16.92
2022-09-16T01:34:45.645Z,16.88
2022-09-16T01:37:34.715Z,16.85
2022-09-16T01:40:06.111Z,16.82
2022-09-16T01:42:51.642Z,16.80
2022-09-16T01:45:26.920Z,16.76
2022-09-16T01:48:12.621Z,16.72
2022-09-16T01:50:48.284Z,16.67
2022-09-16T01:53:37.188Z,16.65
2022-09-16T01:56:16.570Z,16.61
2022-09-16T01:58:59.230Z,16.57
2022-09-16T02:01:33.857Z,16.54
2022-09-16T02:04:06.376Z,16.51
2022-09-16T02:06:34.760Z,16.48
2022-09-16T02:09:15.476Z,16.44
2022-09-16T02:11:46.816Z,16.43
2022-09-16T02:14:22.076Z,16.43
2022-09-16T02:16:58.232Z,16.42
2022-09-16T02:19:57.850Z,16.39
2022-09-16T02:22:39.434Z,16.42
2022-09-16T02:25:08.905Z,16.43
2022-09-16T02:27:38.389Z,16.45
2022-09-16T02:30:08.534Z,16.45
2022-09-16T02:32:39.808Z,16.45
2022-09-16T02:35:09.789Z,16.46
2022-09-16T02:37:59.597Z,16.46
2022-09-16T02:40:35.397Z,16.48
2022-09-16T02:43:02.991Z,16.49
2022-09-16T02:45:46.556Z,16.49
2022-09-16T02:48:21.932Z,16.51
2022-09-16T02:50:52.391Z,16.52
2022-09-16T02:53:52.472Z,16.51
2022-09-16T02:56:29.379Z,16.50
2022-09-16T02:58:55.922Z,16.51
2022-09-16T03:01:24.086Z,16.53
2022-09-16T03:03:54.267Z,16.52
2022-09-16T03:06:23.616Z,16.53
2022-09-16T03:08:51.483Z,16.54
2022-09-16T03:11:36.140Z,16.54
2022-09-16T03:14:11.550Z,16.55
2022-09-16T03:16:48.098Z,16.57
2022-09-16T03:19:32.934Z,16.57
2022-09-16T03:22:20.944Z,16.58
2022-09-16T03:24:52.809Z,16.59
2022-09-16T03:27:29.737Z,16.60
2022-09-16T03:30:04.222Z,16.59
2022-09-16T03:32:54.780Z,16.58
2022-09-16T03:35:34.032Z,16.56
2022-09-16T03:38:02.321Z,16.54
2022-09-16T03:40:32.545Z,16.53
2022-09-16T03:42:59.172Z,16.49
2022-09-16T03:45:25.899Z,16.48
2022-09-16T03:47:53.631Z,16.44
2022-09-16T03:50:21.271Z,16.42
2022-09-16T03:52:47.887Z,16.39
2022-09-16T03:55:14.436Z,16.38
2022-09-16T03:57:40.957Z,16.37
2022-09-16T04:00:08.225Z,16.36
2022-09-16T04:02:40.788Z,16.33
2022-09-16T04:05:08.075Z,16.32
2022-09-16T04:07:34.779Z,16.30
2022-09-16T04:10:01.668Z,16.28
2022-09-16T04:12:28.752Z,16.28
2022-09-16T04:14:55.286Z,16.28
2022-09-16T04:17:21.906Z,16.28
2022-09-16T04:19:48.371Z,16.29
2022-09-16T04:22:17.641Z,16.26
2022-09-16T04:24:44.219Z,16.26
2022-09-16T04:27:10.820Z,16.26
2022-09-16T04:29:37.264Z,16.26
2022-09-16T04:32:03.958Z,16.26
2022-09-16T04:34:30.459Z,16.25
2022-09-16T04:36:56.922Z,16.24
2022-09-16T04:39:23.432Z,16.23
2022-09-16T04:41:49.916Z,16.22
2022-09-16T04:44:16.451Z,16.23
2022-09-16T04:46:43.026Z,16.22
2022-09-16T04:49:09.535Z,16.22
2022-09-16T04:51:36.132Z,16.23
2022-09-16T04:54:02.703Z,16.25
2022-09-16T04:56:31.919Z,16.23
2022-09-16T04:59:00.846Z,16.25
2022-09-16T05:01:30.022Z,16.25
2022-09-16T05:04:00.221Z,16.26
2022-09-16T05:06:32.066Z,16.28
2022-09-16T05:08:59.253Z,16.30
2022-09-16T05:11:28.094Z,16.31
2022-09-16T05:13:55.622Z,16.35
2022-09-16T05:16:23.406Z,16.34
2022-09-16T05:18:53.744Z,16.35
2022-09-16T05:21:21.952Z,16.37
2022-09-16T05:23:49.164Z,16.38
2022-09-16T05:26:19.311Z,16.39
2022-09-16T05:28:46.574Z,16.40
2022-09-16T05:31:18.589Z,16.40
2022-09-16T05:33:47.974Z,16.41
2022-09-16T05:36:17.175Z,16.42
2022-09-16T05:38:59.091Z,16.43
2022-09-16T05:41:30.968Z,16.43
2022-09-16T05:44:01.126Z,16.45
2022-09-16T05:46:28.864Z,16.46
2022-09-16T05:48:56.309Z,16.45
2022-09-16T05:51:24.172Z,16.46
2022-09-16T05:53:51.686Z,16.46
2022-09-16T05:56:23.728Z,16.44
2022-09-16T05:58:52.311Z,16.45
2022-09-16T06:01:21.272Z,16.45
2022-09-16T06:03:50.072Z,16.43
2022-09-16T06:06:24.188Z,16.43
2022-09-16T06:08:52.318Z,16.44
2022-09-16T06:11:19.731Z,16.46
2022-09-16T06:13:46.426Z,16.49
2022-09-16T06:16:13.526Z,16.55
2022-09-16T06:18:40.484Z,16.57
2022-09-16T06:21:09.680Z,16.62
2022-09-16T06:23:37.373Z,16.66
2022-09-16T06:26:06.889Z,16.69
2022-09-16T06:28:33.433Z,16.73
2022-09-16T06:31:13.151Z,16.77
2022-09-16T06:33:40.637Z,16.83
2022-09-16T06:36:15.594Z,16.86
2022-09-16T06:38:42.349Z,16.90
2022-09-16T06:41:10.886Z,16.95
2022-09-16T06:43:38.061Z,16.98
2022-09-16T06:46:09.539Z,17.01
2022-09-16T06:48:36.369Z,17.06
2022-09-16T06:51:05.408Z,17.10
2022-09-16T06:53:33.035Z,17.14
2022-09-16T06:56:08.058Z,17.15
2022-09-16T06:58:36.102Z,17.19
2022-09-16T07:01:09.564Z,17.10
2022-09-16T07:03:41.991Z,17.19
2022-09-16T07:06:09.670Z,17.23
2022-09-16T07:08:37.217Z,17.23
2022-09-16T07:11:06.091Z,17.23
2022-09-16T07:13:32.997Z,17.26
2022-09-16T07:16:19.054Z,17.28
2022-09-16T07:18:45.989Z,17.31
2022-09-16T07:21:16.001Z,17.34
2022-09-16T07:23:44.146Z,17.38
2022-09-16T07:26:16.130Z,17.30
2022-09-16T07:28:44.504Z,17.40
2022-09-16T07:31:13.457Z,17.41
2022-09-16T07:33:45.434Z,17.42
2022-09-16T07:36:15.222Z,17.41
2022-09-16T07:38:41.968Z,17.39
2022-09-16T07:41:14.081Z,17.39
2022-09-16T07:43:42.223Z,17.40
2022-09-16T07:46:09.470Z,17.30
2022-09-16T07:48:36.538Z,17.42
2022-09-16T07:51:16.164Z,17.45
2022-09-16T07:53:43.603Z,17.49
2022-09-16T07:56:18.562Z,17.53
2022-09-16T07:58:46.332Z,17.59
2022-09-16T08:01:14.603Z,17.65
2022-09-16T08:03:42.653Z,17.71
2022-09-16T08:06:12.231Z,17.77
2022-09-16T08:08:39.131Z,17.83
2022-09-16T08:11:06.332Z,17.90
2022-09-16T08:13:33.945Z,17.95
2022-09-16T08:16:09.079Z,18.01
2022-09-16T08:18:35.730Z,18.09
2022-09-16T08:21:07.307Z,18.16
2022-09-16T08:23:38.294Z,18.23
2022-09-16T08:26:05.870Z,18.30
2022-09-16T08:28:40.131Z,18.34
2022-09-16T08:31:20.020Z,18.40
2022-09-16T08:33:47.573Z,18.45
2022-09-16T08:36:20.379Z,18.48
2022-09-16T08:38:49.000Z,18.56
2022-09-16T08:41:33.365Z,18.62
2022-09-16T08:44:30.812Z,18.67
2022-09-16T08:47:03.750Z,18.73
2022-09-16T08:49:40.081Z,18.78
2022-09-16T08:52:18.659Z,18.85
2022-09-16T08:54:50.245Z,18.89
2022-09-16T08:57:24.337Z,18.91
2022-09-16T09:00:04.821Z,18.92
2022-09-16T09:02:55.614Z,18.92
2022-09-16T09:05:47.311Z,18.93
2022-09-16T09:08:26.284Z,18.95
2022-09-16T09:10:59.459Z,18.96
2022-09-16T09:13:59.763Z,19.00
2022-09-16T09:17:04.275Z,19.05
2022-09-16T09:19:57.206Z,19.12
2022-09-16T09:22:35.291Z,19.16
2022-09-16T09:25:07.692Z,19.21
2022-09-16T09:27:50.222Z,19.24
2022-09-16T09:30:25.457Z,19.29
2022-09-16T09:33:01.016Z,19.32
2022-09-16T09:35:47.150Z,19.32
2022-09-16T09:38:28.694Z,19.31
2022-09-16T09:41:10.970Z,19.29
2022-09-16T09:43:47.164Z,19.28
2022-09-16T09:46:33.095Z,19.26
2022-09-16T09:49:14.934Z,19.19
2022-09-16T09:51:48.548Z,19.14
2022-09-16T09:54:28.305Z,19.10
2022-09-16T09:57:00.871Z,19.06
2022-09-16T09:59:36.977Z,19.03
2022-09-16T10:02:03.755Z,19.01
2022-09-16T10:04:37.663Z,18.98
2022-09-16T10:07:05.462Z,19.01
2022-09-16T10:09:32.812Z,19.01
2022-09-16T10:11:59.426Z,18.98
2022-09-16T10:14:34.263Z,18.99
2022-09-16T10:17:14.522Z,18.98
2022-09-16T10:19:59.459Z,18.96
2022-09-16T10:22:30.320Z,18.96
2022-09-16T10:25:05.364Z,18.94
2022-09-16T10:27:35.266Z,18.93
2022-09-16T10:30:13.199Z,18.92
2022-09-16T10:32:58.128Z,18.80
2022-09-16T10:35:27.629Z,18.90
2022-09-16T10:38:03.565Z,18.87
2022-09-16T10:40:31.224Z,18.84
2022-09-16T10:43:03.635Z,18.82
2022-09-16T10:45:34.168Z,18.81
2022-09-16T10:48:07.392Z,18.78
2022-09-16T10:50:34.332Z,18.74
2022-09-16T10:53:00.816Z,18.68
2022-09-16T10:55:30.214Z,18.65
2022-09-16T10:58:18.212Z,18.63
2022-09-16T11:00:58.153Z,18.61
2022-09-16T11:03:24.643Z,18.60
2022-09-16T11:06:00.230Z,18.55
2022-09-16T11:08:36.760Z,18.53
2022-09-16T11:11:11.165Z,18.47
2022-09-16T11:14:17.695Z,18.42
2022-09-16T11:17:15.251Z,18.36
2022-09-16T11:19:55.260Z,18.36
2022-09-16T11:22:42.777Z,18.31
2022-09-16T11:25:30.211Z,18.26
2022-09-16T11:28:08.435Z,18.23
2022-09-16T11:30:47.563Z,18.26
2022-09-16T11:33:49.668Z,18.35
2022-09-16T11:36:32.944Z,18.47
2022-09-16T11:39:28.354Z,18.47
2022-09-16T11:42:34.387Z,18.47
2022-09-16T11:45:03.923Z,18.34
2022-09-16T11:48:02.555Z,18.27
2022-09-16T11:50:38.602Z,18.03
2022-09-16T11:53:22.162Z,17.88
2022-09-16T11:56:15.383Z,17.75
2022-09-16T11:58:48.686Z,17.65
2022-09-16T12:01:39.802Z,17.46
2022-09-16T12:04:43.710Z,17.30
2022-09-16T12:07:17.455Z,17.16
2022-09-16T12:09:54.333Z,17.04
2022-09-16T12:12:29.427Z,16.92
2022-09-16T12:15:05.907Z,16.78
2022-09-16T12:17:36.814Z,16.56
2022-09-16T12:20:13.781Z,16.35
2022-09-16T12:22:45.852Z,16.12
2022-09-16T12:25:17.394Z,15.91
2022-09-16T12:27:51.959Z,15.81
2022-09-16T12:30:21.600Z,15.69
2022-09-16T12:33:05.855Z,15.54
2022-09-16T12:35:39.101Z,15.47
2022-09-16T12:38:16.198Z,15.36
2022-09-16T12:41:10.423Z,15.28
2022-09-16T12:44:30.358Z,15.24
2022-09-16T12:47:41.889Z,15.16
2022-09-16T12:50:38.637Z,15.10
2022-09-16T12:53:27.053Z,15.10
2022-09-16T12:56:08.324Z,15.06
2022-09-16T12:58:34.818Z,15.14
2022-09-16T13:01:16.313Z,15.11
2022-09-16T13:03:48.443Z,15.06
2022-09-16T13:06:32.298Z,15.02
2022-09-16T13:09:13.875Z,15.06
2022-09-16T13:14:31.687Z,15.09
2022-09-16T13:17:00.824Z,15.09
2022-09-16T13:19:36.735Z,15.04
2022-09-16T13:22:24.826Z,15.03
2022-09-16T13:24:58.014Z,15.09
2022-09-16T13:27:36.077Z,15.11
2022-09-16T13:30:08.643Z,15.03
2022-09-16T13:32:38.102Z,15.03
2022-09-16T13:35:18.400Z,14.98
2022-09-16T13:37:46.813Z,14.89
2022-09-16T13:40:19.084Z,14.83
2022-09-16T13:42:45.617Z,14.90
2022-09-16T13:45:31.068Z,14.86
2022-09-16T13:47:57.836Z,14.90
2022-09-16T13:50:26.329Z,14.88
2022-09-16T13:52:53.231Z,14.88
2022-09-16T13:55:23.759Z,14.92
2022-09-16T13:58:10.459Z,14.95
2022-09-16T14:00:47.139Z,14.96
2022-09-16T14:03:30.564Z,14.99
2022-09-16T14:06:00.194Z,15.03
2022-09-16T14:08:35.672Z,15.05
2022-09-16T14:11:14.334Z,15.04
2022-09-16T14:13:48.795Z,15.08
2022-09-16T14:16:24.616Z,15.07
2022-09-16T14:19:23.650Z,15.05
2022-09-16T14:22:16.777Z,15.06
2022-09-16T14:24:45.760Z,15.07
2022-09-16T14:27:23.077Z,15.04
2022-09-16T14:30:01.758Z,15.02
2022-09-16T14:32:31.727Z,15.02
2022-09-16T14:35:02.780Z,15.02
2022-09-16T14:37:31.460Z,14.98
2022-09-16T14:40:11.442Z,14.94
2022-09-16T14:42:39.902Z,14.93
2022-09-16T14:45:06.718Z,14.92
2022-09-16T14:47:51.207Z,14.90
2022-09-16T14:50:49.326Z,14.90
2022-09-16T14:53:36.513Z,14.88
2022-09-16T14:56:05.367Z,14.93
2022-09-16T14:58:33.817Z,14.97
2022-09-16T15:01:09.041Z,15.01
2022-09-16T15:04:11.506Z,15.05
2022-09-16T15:06:48.398Z,15.12
2022-09-16T15:09:34.221Z,15.17
2022-09-16T15:12:01.714Z,15.21
2022-09-16T15:14:28.695Z,15.23
2022-09-16T15:17:01.383Z,15.25
2022-09-16T15:19:35.306Z,15.26
2022-09-16T15:22:02.983Z,15.26
2022-09-16T15:24:33.267Z,15.26
2022-09-16T15:27:01.236Z,15.27
2022-09-16T15:29:33.051Z,15.25
2022-09-16T15:32:22.191Z,15.21
2022-09-16T15:34:48.823Z,15.23
2022-09-16T15:37:32.791Z,15.22
2022-09-16T15:40:22.194Z,15.25
2022-09-16T15:43:01.149Z,15.29
2022-09-16T15:45:28.413Z,15.36
2022-09-16T15:48:07.034Z,15.38
2022-09-16T15:50:53.440Z,15.41
2022-09-16T15:53:32.196Z,15.42
2022-09-16T15:56:03.876Z,15.45
2022-09-16T15:58:32.996Z,15.45
2022-09-16T16:01:03.053Z,15.43
2022-09-16T16:03:37.505Z,15.41
2022-09-16T16:06:04.189Z,15.40
2022-09-16T16:08:52.320Z,15.40
2022-09-16T16:11:21.192Z,15.44
2022-09-16T16:13:48.203Z,15.49
2022-09-16T16:16:15.944Z,15.52
2022-09-16T16:18:44.384Z,15.55
2022-09-16T16:21:16.457Z,15.60
2022-09-16T16:23:43.546Z,15.65
2022-09-16T16:26:11.501Z,15.68
2022-09-16T16:28:38.077Z,15.71
2022-09-16T16:31:16.044Z,15.75
2022-09-16T16:33:46.618Z,15.70
2022-09-16T16:36:18.066Z,15.80
2022-09-16T16:38:44.756Z,15.85
2022-09-16T16:41:11.535Z,15.85
2022-09-16T16:43:38.718Z,15.89
2022-09-16T16:46:05.465Z,15.88
2022-09-16T16:48:31.988Z,15.91
2022-09-16T16:51:07.908Z,15.91
2022-09-16T16:53:34.987Z,15.91
2022-09-16T16:56:04.381Z,15.87
2022-09-16T16:58:31.965Z,15.87
2022-09-16T17:01:19.344Z,15.85
2022-09-16T17:03:47.560Z,15.86
2022-09-16T17:06:14.002Z,15.77
2022-09-16T17:08:40.569Z,15.83
2022-09-16T17:11:08.094Z,15.85
2022-09-16T17:13:34.573Z,15.81
2022-09-16T17:16:01.196Z,15.80
2022-09-16T17:18:27.783Z,15.77
2022-09-16T17:20:54.295Z,15.73
2022-09-16T17:23:20.841Z,15.68
2022-09-16T17:25:50.243Z,15.62
2022-09-16T17:28:17.261Z,15.56
2022-09-16T17:30:44.586Z,15.49
2022-09-16T17:33:11.180Z,15.42
2022-09-16T17:35:37.649Z,15.30
2022-09-16T17:38:06.954Z,15.23
2022-09-16T17:40:34.270Z,15.18
2022-09-16T17:43:00.890Z,15.10
2022-09-16T17:45:27.385Z,15.03
2022-09-16T17:47:55.531Z,14.98
2022-09-16T17:50:23.131Z,14.83
2022-09-16T17:52:49.865Z,14.85
2022-09-16T17:55:16.451Z,14.83
2022-09-16T17:57:43.160Z,14.77
2022-09-16T18:00:10.168Z,14.73
2022-09-16T18:02:39.693Z,14.69
2022-09-16T18:05:06.773Z,14.65
2022-09-16T18:07:33.357Z,14.62
2022-09-16T18:09:59.848Z,14.63
2022-09-16T18:12:26.352Z,14.61
2022-09-16T18:14:52.854Z,14.62
2022-09-16T18:17:19.296Z,14.62
2022-09-16T18:19:45.818Z,14.64
2022-09-16T18:22:12.345Z,14.63
2022-09-16T18:24:38.841Z,14.65
2022-09-16T18:27:05.385Z,14.67
2022-09-16T18:29:31.907Z,14.67
2022-09-16T18:31:58.427Z,14.66
2022-09-16T18:34:24.926Z,14.67
2022-09-16T18:36:51.411Z,14.69
2022-09-16T18:39:18.290Z,14.68
2022-09-16T18:41:46.007Z,14.68
2022-09-16T18:44:22.371Z,14.68
2022-09-16T18:46:49.580Z,14.71
2022-09-16T18:49:17.701Z,14.70
2022-09-16T18:51:50.832Z,14.70
2022-09-16T18:54:21.120Z,14.69
2022-09-16T18:56:47.607Z,14.67
2022-09-16T18:59:21.405Z,14.68
2022-09-16T19:01:49.484Z,14.69
2022-09-16T19:04:19.745Z,14.70
2022-09-16T19:06:48.484Z,14.70
2022-09-16T19:09:17.622Z,14.72
2022-09-16T19:11:44.657Z,14.71
2022-09-16T19:14:12.395Z,14.72
2022-09-16T19:16:40.244Z,14.72
2022-09-16T19:19:08.319Z,14.70
2022-09-16T19:21:34.816Z,14.59
2022-09-16T19:24:04.121Z,14.64
2022-09-16T19:26:33.504Z,14.64
2022-09-16T19:29:00.348Z,14.61
2022-09-16T19:31:28.646Z,14.60
2022-09-16T19:33:55.753Z,14.58
2022-09-16T19:36:25.296Z,14.57
2022-09-16T19:38:52.665Z,14.56
2022-09-16T19:41:20.859Z,14.54
2022-09-16T19:43:47.259Z,14.46
2022-09-16T19:46:15.973Z,14.51
2022-09-16T19:48:45.638Z,14.51
2022-09-16T19:51:14.111Z,14.51
2022-09-16T19:53:42.133Z,14.48
2022-09-16T19:56:10.074Z,14.37
2022-09-16T19:58:37.559Z,14.43
2022-09-16T20:01:08.451Z,14.44
2022-09-16T20:03:37.007Z,14.44
2022-09-16T20:06:10.367Z,14.43
2022-09-16T20:08:38.549Z,14.42
2022-09-16T20:11:06.167Z,14.34
2022-09-16T20:13:33.245Z,14.42
2022-09-16T20:16:08.309Z,14.44
2022-09-16T20:18:36.625Z,14.45
2022-09-16T20:21:09.412Z,14.43
2022-09-16T20:23:37.229Z,14.44
2022-09-16T20:26:06.808Z,14.41
2022-09-16T20:28:36.217Z,14.41
2022-09-16T20:31:03.663Z,14.39
2022-09-16T20:33:33.646Z,14.37
2022-09-16T20:36:08.310Z,14.36
2022-09-16T20:38:34.912Z,14.36
2022-09-16T20:41:06.357Z,14.32
2022-09-16T20:43:33.185Z,14.31
2022-09-16T20:46:09.717Z,14.28
2022-09-16T20:48:36.270Z,14.27
2022-09-16T20:51:08.264Z,14.25
2022-09-16T20:53:36.120Z,14.24
2022-09-16T20:56:14.899Z,14.22
2022-09-16T20:58:43.045Z,14.21
2022-09-16T21:01:15.681Z,14.20
2022-09-16T21:03:43.612Z,14.20
2022-09-16T21:06:12.650Z,14.19
2022-09-16T21:08:39.410Z,14.20
2022-09-16T21:11:07.124Z,14.20
2022-09-16T21:13:33.997Z,14.19
2022-09-16T21:16:00.951Z,14.20
2022-09-16T21:18:28.725Z,14.19
2022-09-16T21:21:04.136Z,14.18
2022-09-16T21:23:31.858Z,14.19
2022-09-16T21:26:06.283Z,14.18
2022-09-16T21:28:35.601Z,14.19
2022-09-16T21:31:04.044Z,14.21
2022-09-16T21:33:32.151Z,14.21
2022-09-16T21:35:58.949Z,14.13
2022-09-16T21:38:27.997Z,14.24
2022-09-16T21:40:59.460Z,14.24
2022-09-16T21:43:28.088Z,14.23
2022-09-16T21:45:55.432Z,14.24
2022-09-16T21:48:22.130Z,14.21
2022-09-16T21:50:49.164Z,14.23
2022-09-16T21:53:15.689Z,14.22
2022-09-16T21:55:42.248Z,14.22
2022-09-16T21:58:09.239Z,14.22
2022-09-16T22:00:36.213Z,14.20
2022-09-16T22:03:02.830Z,14.22
2022-09-16T22:05:30.375Z,14.20
2022-09-16T22:07:56.879Z,14.14
2022-09-16T22:10:23.349Z,14.13
2022-09-16T22:12:49.891Z,14.12
2022-09-16T22:15:16.445Z,14.08
2022-09-16T22:17:43.512Z,14.06
2022-09-16T22:20:11.168Z,14.06
2022-09-16T22:22:39.133Z,14.01
2022-09-16T22:25:05.973Z,13.97
2022-09-16T22:27:32.533Z,13.96
2022-09-16T22:29:59.011Z,13.95
2022-09-16T22:32:27.392Z,13.91
2022-09-16T22:34:53.953Z,13.88
2022-09-16T22:37:20.421Z,13.85
2022-09-16T22:39:46.973Z,13.81
2022-09-16T22:42:13.447Z,13.77
2022-09-16T22:44:40.055Z,13.74
2022-09-16T22:47:06.560Z,13.71
2022-09-16T22:49:33.061Z,13.69
2022-09-16T22:51:59.557Z,13.69
2022-09-16T22:54:26.120Z,13.68
2022-09-16T22:56:52.634Z,13.68
2022-09-16T22:59:20.626Z,13.67
2022-09-16T23:01:48.079Z,13.66
2022-09-16T23:04:14.894Z,13.67
2022-09-16T23:06:41.479Z,13.67
2022-09-16T23:09:09.071Z,13.68
2022-09-16T23:11:36.487Z,13.68
2022-09-16T23:14:03.427Z,13.71
2022-09-16T23:16:35.891Z,13.70
2022-09-16T23:19:04.876Z,13.71
2022-09-16T23:21:31.617Z,13.71
2022-09-16T23:24:00.814Z,13.72
2022-09-16T23:26:31.558Z,13.74
2022-09-16T23:28:59.918Z,13.74
2022-09-16T23:31:29.432Z,13.74
2022-09-16T23:33:56.505Z,13.75
2022-09-16T23:36:24.256Z,13.76
2022-09-16T23:38:50.747Z,13.74
2022-09-16T23:41:21.921Z,13.75
2022-09-16T23:43:49.736Z,13.73
2022-09-16T23:46:19.128Z,13.72
2022-09-16T23:48:45.960Z,13.70
2022-09-16T23:51:13.550Z,13.69
2022-09-16T23:53:41.512Z,13.65
2022-09-16T23:56:13.449Z,13.63
2022-09-16T23:58:41.016Z,13.64
